Terminal Aerodrome Forecast
Issued by NWS Duluth, MN

Home | Current Version | Previous Version | Text Only | Print | Product List | Glossary On
Versions: 1 2 3 4 5 6 7 8 9 10 11 12 13 14 15 16 17 18 19 20
351
FTUS43 KDLH 230526
TAFINL
TAF
KINL 230526Z 2306/2406 VRB03KT P6SM VCSH SCT015 BKN025
      TEMPO 2306/2309 6SM -SHRA BR
     FM230900 VRB03KT 6SM BR VCSH BKN015 OVC025
     FM231100 02004KT 5SM BR OVC010
     FM231600 03008KT P6SM BKN045
     FM231800 04006KT P6SM SCT050=

USA.gov is the U.S. government's official web portal to all federal, state and local government web resources and services.